createdAt,value
2022-08-05T00:01:36.570Z,4.12
2022-08-05T00:04:17.748Z,3.97
2022-08-05T00:06:45.453Z,4.20
2022-08-05T00:09:16.047Z,3.83
2022-08-05T00:11:55.352Z,3.78
2022-08-05T00:14:27.837Z,3.80
2022-08-05T00:16:59.184Z,3.50
2022-08-05T00:19:32.857Z,3.80
2022-08-05T00:22:02.568Z,3.60
2022-08-05T00:24:31.116Z,3.75
2022-08-05T00:27:04.721Z,3.60
2022-08-05T00:29:38.492Z,4.47
2022-08-05T00:32:13.060Z,3.67
2022-08-05T00:35:03.535Z,4.00
2022-08-05T00:37:35.791Z,3.80
2022-08-05T00:40:27.329Z,3.50
2022-08-05T00:42:57.949Z,3.95
2022-08-05T00:45:38.801Z,3.83
2022-08-05T00:48:12.799Z,3.80
2022-08-05T00:50:44.084Z,3.53
2022-08-05T00:54:01.325Z,3.53
2022-08-05T00:56:04.648Z,3.40
2022-08-05T00:58:32.282Z,3.55
2022-08-05T01:00:59.796Z,3.45
2022-08-05T01:03:33.521Z,3.78
2022-08-05T01:06:01.828Z,3.50
2022-08-05T01:08:43.207Z,3.83
2022-08-05T01:11:22.428Z,3.60
2022-08-05T01:14:08.801Z,3.70
2022-08-05T01:16:54.843Z,3.25
2022-08-05T01:19:36.839Z,3.58
2022-08-05T01:22:15.460Z,3.60
2022-08-05T01:24:52.593Z,3.53
2022-08-05T01:27:55.294Z,3.25
2022-08-05T01:30:34.323Z,3.60
2022-08-05T01:33:08.189Z,3.58
2022-08-05T01:35:50.757Z,3.30
2022-08-05T01:38:27.582Z,3.20
2022-08-05T01:41:01.509Z,3.35
2022-08-05T01:43:30.419Z,3.33
2022-08-05T01:46:07.110Z,3.67
2022-08-05T01:48:45.620Z,3.90
2022-08-05T01:51:18.864Z,3.95
2022-08-05T01:53:57.708Z,3.40
2022-08-05T01:58:10.298Z,3.33
2022-08-05T01:59:22.494Z,3.63
2022-08-05T02:01:51.920Z,3.97
2022-08-05T02:04:24.181Z,3.70
2022-08-05T02:06:53.120Z,3.70
2022-08-05T02:09:20.928Z,4.65
2022-08-05T02:11:53.630Z,3.60
2022-08-05T02:14:44.314Z,3.80
2022-08-05T02:18:27.916Z,3.70
2022-08-05T02:20:23.397Z,3.45
2022-08-05T02:23:03.529Z,3.53
2022-08-05T02:25:49.332Z,3.50
2022-08-05T02:28:32.164Z,3.22
2022-08-05T02:31:07.494Z,3.60
2022-08-05T02:33:39.750Z,3.87
2022-08-05T02:36:16.945Z,3.50
2022-08-05T02:38:52.957Z,3.62
2022-08-05T02:41:23.141Z,3.62
2022-08-05T02:44:02.747Z,3.55
2022-08-05T02:46:53.789Z,3.72
2022-08-05T02:49:35.756Z,3.72
2022-08-05T02:52:07.905Z,3.55
2022-08-05T02:54:41.561Z,3.85
2022-08-05T02:58:12.159Z,3.92
2022-08-05T03:00:04.749Z,3.80
2022-08-05T03:02:36.757Z,3.70
2022-08-05T03:05:05.531Z,3.60
2022-08-05T03:07:59.323Z,3.75
2022-08-05T03:10:24.870Z,3.90
2022-08-05T03:12:54.165Z,3.80
2022-08-05T03:15:23.984Z,3.80
2022-08-05T03:17:57.480Z,4.25
2022-08-05T03:20:25.698Z,4.20
2022-08-05T03:22:57.365Z,4.10
2022-08-05T03:25:32.402Z,4.10
2022-08-05T03:28:14.656Z,4.00
2022-08-05T03:30:47.853Z,3.75
2022-08-05T03:33:16.480Z,4.25
2022-08-05T03:35:47.968Z,4.22
2022-08-05T03:38:15.626Z,3.90
2022-08-05T03:40:45.121Z,4.20
2022-08-05T03:44:08.462Z,4.28
2022-08-05T03:46:04.628Z,4.20
2022-08-05T03:48:35.613Z,4.70
2022-08-05T03:52:37.148Z,4.62
2022-08-05T03:55:51.364Z,4.28
2022-08-05T03:56:53.199Z,4.43
2022-08-05T03:59:24.730Z,4.03
2022-08-05T04:01:53.836Z,4.30
2022-08-05T04:04:27.468Z,4.32
2022-08-05T04:06:55.996Z,4.20
2022-08-05T04:09:26.402Z,4.28
2022-08-05T04:11:56.532Z,4.40
2022-08-05T04:14:30.571Z,4.63
2022-08-05T04:17:00.207Z,4.30
2022-08-05T04:19:29.253Z,4.15
2022-08-05T04:22:09.009Z,4.07
2022-08-05T04:24:44.034Z,4.50
2022-08-05T04:27:13.487Z,4.60
2022-08-05T04:29:41.686Z,4.17
2022-08-05T04:32:10.298Z,4.28
2022-08-05T04:34:42.830Z,4.15
2022-08-05T04:37:11.346Z,4.30
2022-08-05T04:39:39.184Z,4.57
2022-08-05T04:42:08.000Z,4.30
2022-08-05T04:44:36.882Z,4.15
2022-08-05T04:47:09.046Z,4.50
2022-08-05T04:50:01.738Z,4.73
2022-08-05T04:52:28.381Z,4.10
2022-08-05T04:54:57.267Z,4.62
2022-08-05T04:57:28.662Z,4.80
2022-08-05T04:59:58.816Z,4.28
2022-08-05T05:02:36.680Z,4.33
2022-08-05T05:05:26.221Z,4.50
2022-08-05T05:07:56.533Z,4.40
2022-08-05T05:10:33.866Z,4.45
2022-08-05T05:13:03.995Z,4.35
2022-08-05T05:16:02.028Z,4.17
2022-08-05T05:18:31.075Z,4.50
2022-08-05T05:21:03.615Z,4.80
2022-08-05T05:24:02.111Z,4.43
2022-08-05T05:26:19.588Z,4.53
2022-08-05T05:28:56.282Z,5.70
2022-08-05T05:31:24.816Z,4.68
2022-08-05T05:33:59.393Z,4.70
2022-08-05T05:36:28.590Z,4.65
2022-08-05T05:38:57.956Z,4.62
2022-08-05T05:41:26.394Z,4.50
2022-08-05T05:44:35.590Z,4.20
2022-08-05T05:46:57.098Z,4.47
2022-08-05T05:49:28.724Z,4.40
2022-08-05T05:51:56.882Z,4.32
2022-08-05T05:54:49.741Z,4.22
2022-08-05T05:57:13.753Z,4.47
2022-08-05T05:59:47.874Z,4.28
2022-08-05T06:02:17.040Z,4.30
2022-08-05T06:05:03.405Z,4.50
2022-08-05T06:07:41.372Z,4.45
2022-08-05T06:10:10.736Z,4.25
2022-08-05T06:12:42.059Z,4.43
2022-08-05T06:15:16.182Z,4.20
2022-08-05T06:17:53.068Z,4.60
2022-08-05T06:20:21.986Z,4.37
2022-08-05T06:22:49.424Z,4.25
2022-08-05T06:25:24.237Z,3.83
2022-08-05T06:28:10.931Z,3.70
2022-08-05T06:30:47.833Z,3.92
2022-08-05T06:33:19.327Z,3.55
2022-08-05T06:36:07.389Z,3.50
2022-08-05T06:38:37.702Z,3.75
2022-08-05T06:41:08.136Z,3.45
2022-08-05T06:43:58.763Z,3.40
2022-08-05T06:46:29.891Z,3.37
2022-08-05T06:48:59.647Z,3.40
2022-08-05T06:51:30.711Z,3.40
2022-08-05T06:53:59.899Z,3.30
2022-08-05T06:56:28.043Z,3.40
2022-08-05T06:58:55.875Z,3.03
2022-08-05T07:01:23.605Z,3.15
2022-08-05T07:03:55.218Z,3.30
2022-08-05T07:06:23.341Z,3.40
2022-08-05T07:08:52.030Z,3.20
2022-08-05T07:11:25.461Z,3.35
2022-08-05T07:14:15.414Z,3.30
2022-08-05T07:18:08.483Z,3.00
2022-08-05T07:22:30.059Z,3.35
2022-08-05T07:24:59.523Z,3.25
2022-08-05T07:27:57.542Z,3.10
2022-08-05T07:30:32.701Z,3.30
2022-08-05T07:33:09.073Z,3.15
2022-08-05T07:36:03.791Z,3.30
2022-08-05T07:38:33.695Z,3.12
2022-08-05T07:42:12.847Z,3.20
2022-08-05T07:44:14.498Z,3.35
2022-08-05T07:46:48.650Z,3.90
2022-08-05T07:49:18.327Z,3.75
2022-08-05T07:51:53.320Z,3.35
2022-08-05T07:54:31.305Z,3.42
2022-08-05T07:57:22.753Z,3.20
2022-08-05T07:59:50.341Z,3.67
2022-08-05T08:02:18.466Z,3.62
2022-08-05T08:04:47.291Z,3.03
2022-08-05T08:07:15.329Z,3.60
2022-08-05T08:09:43.626Z,3.28
2022-08-05T08:12:35.457Z,3.47
2022-08-05T08:15:02.686Z,3.25
2022-08-05T08:17:32.373Z,3.53
2022-08-05T08:20:22.696Z,3.50
2022-08-05T08:22:55.670Z,3.37
2022-08-05T08:25:27.030Z,3.37
2022-08-05T08:28:18.376Z,3.10
2022-08-05T08:31:01.268Z,3.37
2022-08-05T08:33:28.977Z,3.40
2022-08-05T08:38:53.443Z,3.30
2022-08-05T08:41:26.354Z,3.50
2022-08-05T08:47:22.351Z,3.30
2022-08-05T08:50:30.710Z,3.70
2022-08-05T08:52:57.783Z,3.80
2022-08-05T08:56:01.590Z,3.53
2022-08-05T08:58:15.274Z,3.45
2022-08-05T09:00:44.509Z,3.90
2022-08-05T09:03:16.273Z,3.40
2022-08-05T09:06:08.949Z,3.30
2022-08-05T09:08:40.230Z,3.40
2022-08-05T09:11:12.304Z,3.40
2022-08-05T09:14:10.360Z,3.58
2022-08-05T09:16:30.980Z,3.30
2022-08-05T09:18:59.280Z,3.67
2022-08-05T09:22:22.777Z,3.33
2022-08-05T09:28:37.716Z,3.20
2022-08-05T09:31:44.060Z,3.50
2022-08-05T09:34:04.045Z,3.92
2022-08-05T09:36:55.129Z,3.30
2022-08-05T09:39:45.634Z,3.50
2022-08-05T09:46:06.648Z,3.10
2022-08-05T09:49:06.491Z,3.20
2022-08-05T09:51:38.554Z,3.20
2022-08-05T09:54:10.484Z,3.30
2022-08-05T09:56:39.437Z,3.35
2022-08-05T09:59:09.550Z,3.20
2022-08-05T10:01:45.882Z,3.45
2022-08-05T10:04:16.243Z,3.27
2022-08-05T10:06:59.117Z,3.12
2022-08-05T10:09:29.545Z,3.30
2022-08-05T10:12:18.683Z,3.37
2022-08-05T10:15:20.279Z,3.47
2022-08-05T10:18:09.713Z,3.70
2022-08-05T10:20:50.573Z,3.20
2022-08-05T10:23:34.339Z,3.40
2022-08-05T10:26:13.826Z,3.30
2022-08-05T10:28:46.372Z,3.27
2022-08-05T10:32:50.554Z,3.35
2022-08-05T10:34:03.608Z,3.30
2022-08-05T10:36:31.271Z,3.25
2022-08-05T10:39:05.299Z,3.20
2022-08-05T10:42:03.901Z,3.42
2022-08-05T10:44:32.393Z,3.25
2022-08-05T10:47:26.614Z,3.35
2022-08-05T10:50:31.692Z,3.25
2022-08-05T10:52:58.531Z,3.20
2022-08-05T10:55:27.101Z,3.20
2022-08-05T10:58:09.369Z,3.40
2022-08-05T11:00:46.173Z,3.35
2022-08-05T11:03:24.258Z,3.25
2022-08-05T11:06:16.234Z,3.30
2022-08-05T11:09:13.207Z,3.03
2022-08-05T11:11:53.003Z,3.90
2022-08-05T11:14:42.831Z,3.40
2022-08-05T11:17:59.813Z,3.40
2022-08-05T11:20:43.674Z,3.43
2022-08-05T11:29:41.008Z,3.35
2022-08-05T11:32:26.916Z,3.40
2022-08-05T11:34:55.357Z,3.20
2022-08-05T11:38:29.337Z,3.23
2022-08-05T11:41:14.045Z,3.10
2022-08-05T11:44:05.473Z,3.50
2022-08-05T11:47:09.422Z,3.10
2022-08-05T11:49:42.825Z,3.10
2022-08-05T11:52:11.979Z,3.17
2022-08-05T11:54:41.623Z,3.07
2022-08-05T11:57:24.487Z,3.40
2022-08-05T11:59:58.974Z,3.10
2022-08-05T12:02:31.659Z,3.37
2022-08-05T12:05:07.117Z,3.30
2022-08-05T12:08:10.330Z,3.30
2022-08-05T12:10:43.272Z,3.20
2022-08-05T12:13:16.488Z,3.33
2022-08-05T12:15:49.658Z,3.30
2022-08-05T12:18:19.089Z,3.53
2022-08-05T12:20:48.424Z,3.12
2022-08-05T12:23:16.794Z,2.90
2022-08-05T12:25:56.698Z,3.20
2022-08-05T12:38:15.751Z,3.40
2022-08-05T12:40:50.798Z,3.15
2022-08-05T12:43:21.037Z,3.08
2022-08-05T12:45:55.939Z,3.23
2022-08-05T12:48:27.665Z,3.00
2022-08-05T12:51:21.612Z,3.50
2022-08-05T12:54:01.938Z,3.17
2022-08-05T12:56:34.857Z,3.20
2022-08-05T12:59:20.745Z,3.10
2022-08-05T13:02:07.504Z,3.28
2022-08-05T13:04:54.534Z,3.10
2022-08-05T13:07:55.875Z,2.97
2022-08-05T13:10:19.960Z,2.90
2022-08-05T13:12:50.723Z,3.20
2022-08-05T13:15:41.887Z,3.00
2022-08-05T13:18:20.235Z,3.22
2022-08-05T13:20:49.701Z,3.27
2022-08-05T13:23:22.698Z,3.20
2022-08-05T13:25:59.171Z,3.30
2022-08-05T13:28:27.949Z,2.85
2022-08-05T13:30:57.219Z,3.03
2022-08-05T13:34:21.145Z,2.80
2022-08-05T13:36:14.482Z,2.90
2022-08-05T13:38:43.055Z,2.75
2022-08-05T13:41:11.744Z,2.62
2022-08-05T13:43:45.266Z,2.70
2022-08-05T13:46:50.985Z,3.00
2022-08-05T13:49:13.694Z,2.90
2022-08-05T13:51:46.538Z,2.70
2022-08-05T13:54:16.464Z,2.90
2022-08-05T13:56:50.784Z,2.87
2022-08-05T13:59:23.822Z,3.10
2022-08-05T14:02:00.363Z,3.20
2022-08-05T14:04:52.104Z,2.90
2022-08-05T14:07:26.362Z,2.80
2022-08-05T14:10:18.402Z,2.72
2022-08-05T14:12:48.630Z,2.90
2022-08-05T14:16:04.602Z,2.87
2022-08-05T14:18:05.031Z,2.78
2022-08-05T14:20:32.769Z,2.92
2022-08-05T14:23:00.718Z,3.00
2022-08-05T14:25:30.402Z,2.90
2022-08-05T14:27:58.294Z,3.00
2022-08-05T14:30:26.772Z,2.90
2022-08-05T14:32:56.789Z,2.75
2022-08-05T14:35:36.252Z,3.00
2022-08-05T14:38:05.089Z,3.23
2022-08-05T14:40:32.807Z,3.03
2022-08-05T14:43:01.507Z,3.00
2022-08-05T14:45:28.966Z,3.20
2022-08-05T14:48:04.918Z,3.22
2022-08-05T14:50:36.063Z,3.00
2022-08-05T14:53:08.822Z,2.83
2022-08-05T14:55:39.008Z,3.15
2022-08-05T14:58:12.032Z,3.22
2022-08-05T15:00:59.333Z,3.15
2022-08-05T15:03:33.355Z,3.00
2022-08-05T15:06:15.468Z,3.37
2022-08-05T15:08:59.705Z,3.20
2022-08-05T15:11:53.272Z,3.10
2022-08-05T15:14:35.618Z,2.80
2022-08-05T15:17:44.848Z,2.80
2022-08-05T15:20:00.470Z,3.37
2022-08-05T15:22:28.718Z,2.97
2022-08-05T15:24:56.842Z,2.90
2022-08-05T15:27:25.776Z,3.17
2022-08-05T15:29:56.657Z,3.15
2022-08-05T15:32:27.425Z,3.00
2022-08-05T15:34:57.246Z,2.80
2022-08-05T15:38:32.562Z,3.00
2022-08-05T15:41:03.017Z,3.20
2022-08-05T15:43:09.202Z,3.17
2022-08-05T15:45:47.695Z,3.12
2022-08-05T15:48:28.388Z,3.17
2022-08-05T15:50:56.342Z,3.03
2022-08-05T15:53:26.521Z,3.00
2022-08-05T15:56:09.100Z,3.15
2022-08-05T15:58:41.532Z,2.70
2022-08-05T16:01:16.985Z,3.00
2022-08-05T16:03:48.461Z,2.83
2022-08-05T16:06:26.793Z,3.10
2022-08-05T16:09:00.099Z,3.08
2022-08-05T16:11:43.049Z,3.10
2022-08-05T16:14:17.183Z,2.92
2022-08-05T16:16:46.104Z,3.00
2022-08-05T16:20:02.781Z,3.20
2022-08-05T16:22:10.756Z,3.10
2022-08-05T16:24:40.687Z,3.10
2022-08-05T16:27:18.677Z,3.22
2022-08-05T16:29:50.912Z,2.95
2022-08-05T16:32:28.399Z,3.20
2022-08-05T16:34:58.894Z,2.83
2022-08-05T16:38:16.394Z,2.95
2022-08-05T16:40:26.623Z,3.10
2022-08-05T16:42:57.361Z,3.20
2022-08-05T16:46:04.214Z,3.40
2022-08-05T16:48:25.939Z,2.90
2022-08-05T16:51:00.171Z,3.87
2022-08-05T16:53:32.024Z,5.53
2022-08-05T16:56:00.546Z,8.60
2022-08-05T16:58:29.402Z,5.73
2022-08-05T17:01:00.358Z,4.90
2022-08-05T17:03:28.100Z,5.12
2022-08-05T17:06:00.466Z,4.50
2022-08-05T17:08:33.386Z,3.43
2022-08-05T17:11:16.970Z,3.40
2022-08-05T17:13:46.037Z,3.40
2022-08-05T17:16:32.727Z,3.10
2022-08-05T17:19:01.709Z,3.20
2022-08-05T17:21:36.280Z,3.73
2022-08-05T17:24:36.505Z,3.35
2022-08-05T17:27:12.533Z,3.00
2022-08-05T17:29:47.154Z,3.25
2022-08-05T17:32:19.822Z,3.50
2022-08-05T17:34:49.241Z,3.37
2022-08-05T17:37:35.988Z,3.75
2022-08-05T17:40:13.276Z,3.10
2022-08-05T17:42:46.448Z,3.40
2022-08-05T17:45:22.241Z,3.80
2022-08-05T17:47:55.000Z,3.30
2022-08-05T17:50:28.790Z,3.28
2022-08-05T17:53:02.548Z,3.58
2022-08-05T17:55:37.498Z,3.50
2022-08-05T17:58:09.348Z,3.58
2022-08-05T18:00:40.857Z,3.30
2022-08-05T18:03:24.129Z,3.50
2022-08-05T18:06:06.128Z,3.30
2022-08-05T18:08:44.865Z,3.10
2022-08-05T18:11:24.293Z,3.50
2022-08-05T18:14:04.201Z,3.50
2022-08-05T18:16:33.331Z,3.90
2022-08-05T18:19:02.240Z,3.85
2022-08-05T18:22:08.646Z,3.80
2022-08-05T18:24:18.977Z,3.50
2022-08-05T18:26:52.428Z,4.10
2022-08-05T18:29:40.359Z,4.15
2022-08-05T18:32:12.674Z,4.10
2022-08-05T18:34:42.996Z,4.10
2022-08-05T18:37:12.514Z,4.10
2022-08-05T18:40:34.288Z,4.75
2022-08-05T18:42:33.226Z,5.05
2022-08-05T18:45:01.650Z,4.37
2022-08-05T18:47:31.046Z,5.00
2022-08-05T18:50:20.885Z,7.05
2022-08-05T18:53:15.053Z,5.60
2022-08-05T18:55:49.674Z,4.33
2022-08-05T18:58:27.174Z,4.22
2022-08-05T19:00:57.458Z,4.25
2022-08-05T19:03:52.909Z,4.35
2022-08-05T19:06:22.192Z,4.10
2022-08-05T19:09:01.623Z,7.97
2022-08-05T19:11:58.642Z,6.93
2022-08-05T19:14:59.313Z,5.55
2022-08-05T19:17:07.751Z,5.62
2022-08-05T19:19:35.626Z,4.80
2022-08-05T19:22:04.426Z,5.50
2022-08-05T19:24:36.128Z,4.80
2022-08-05T19:27:06.208Z,4.60
2022-08-05T19:29:35.897Z,4.93
2022-08-05T19:32:11.363Z,4.60
2022-08-05T19:34:39.977Z,4.30
2022-08-05T19:37:08.800Z,4.07
2022-08-05T19:39:45.469Z,3.97
2022-08-05T19:42:35.304Z,4.00
2022-08-05T19:45:06.069Z,3.80
2022-08-05T19:47:37.630Z,4.05
2022-08-05T19:50:07.920Z,4.30
2022-08-05T19:52:40.821Z,4.10
2022-08-05T19:56:13.795Z,3.93
2022-08-05T19:58:06.817Z,4.30
2022-08-05T20:00:45.595Z,4.37
2022-08-05T20:03:13.767Z,4.65
2022-08-05T20:05:50.198Z,4.07
2022-08-05T20:08:20.705Z,4.10
2022-08-05T20:10:52.894Z,4.50
2022-08-05T20:13:54.463Z,4.25
2022-08-05T20:16:10.143Z,4.37
2022-08-05T20:18:39.041Z,5.15
2022-08-05T20:21:08.274Z,5.67
2022-08-05T20:23:44.502Z,5.35
2022-08-05T20:26:21.342Z,4.93
2022-08-05T20:28:55.578Z,4.75
2022-08-05T20:31:37.324Z,4.25
2022-08-05T20:34:13.789Z,4.15
2022-08-05T20:36:43.407Z,4.72
2022-08-05T20:39:12.938Z,4.50
2022-08-05T20:41:43.272Z,4.15
2022-08-05T20:44:18.884Z,4.47
2022-08-05T20:47:01.632Z,4.20
2022-08-05T20:49:33.185Z,4.10
2022-08-05T20:52:08.834Z,4.70
2022-08-05T20:54:43.066Z,4.22
2022-08-05T20:57:43.511Z,4.70
2022-08-05T21:00:34.951Z,4.60
2022-08-05T21:03:07.574Z,5.05
2022-08-05T21:05:47.637Z,4.32
2022-08-05T21:08:26.939Z,4.70
2022-08-05T21:11:01.584Z,4.55
2022-08-05T21:13:47.820Z,5.22
2022-08-05T21:16:29.949Z,4.90
2022-08-05T21:19:03.565Z,4.70
2022-08-05T21:21:39.685Z,5.07
2022-08-05T21:24:13.503Z,4.97
2022-08-05T21:26:53.712Z,4.75
2022-08-05T21:29:31.813Z,4.80
2022-08-05T21:32:03.395Z,4.40
2022-08-05T21:34:33.121Z,4.43
2022-08-05T21:37:04.884Z,4.45
2022-08-05T21:39:34.743Z,4.60
2022-08-05T21:42:30.752Z,4.37
2022-08-05T21:44:58.196Z,4.12
2022-08-05T21:47:56.124Z,4.50
2022-08-05T21:50:15.116Z,4.20
2022-08-05T21:52:47.375Z,4.30
2022-08-05T21:55:15.067Z,4.68
2022-08-05T21:57:42.971Z,4.57
2022-08-05T22:00:11.766Z,4.75
2022-08-05T22:02:41.611Z,5.10
2022-08-05T22:05:12.405Z,5.17
2022-08-05T22:07:58.417Z,4.55
2022-08-05T22:10:28.151Z,4.53
2022-08-05T22:12:58.763Z,4.40
2022-08-05T22:16:02.461Z,4.80
2022-08-05T22:18:14.789Z,4.70
2022-08-05T22:20:44.251Z,4.53
2022-08-05T22:24:01.041Z,4.40
2022-08-05T22:26:38.296Z,4.95
2022-08-05T22:29:05.965Z,4.65
2022-08-05T22:31:44.918Z,4.60
2022-08-05T22:34:20.153Z,4.87
2022-08-05T22:36:58.406Z,4.47
2022-08-05T22:39:33.226Z,4.40
2022-08-05T22:42:09.442Z,4.95
2022-08-05T22:44:39.474Z,4.78
2022-08-05T22:47:08.058Z,4.65
2022-08-05T22:50:20.522Z,4.70
2022-08-05T22:52:32.203Z,4.40
2022-08-05T22:55:02.248Z,4.23
2022-08-05T22:57:34.150Z,4.43
2022-08-05T23:00:07.811Z,4.40
2022-08-05T23:02:40.044Z,4.50
2022-08-05T23:05:16.495Z,4.93
2022-08-05T23:07:48.257Z,4.47
2022-08-05T23:10:19.573Z,4.82
2022-08-05T23:12:54.524Z,4.40
2022-08-05T23:15:29.304Z,4.80
2022-08-05T23:18:01.401Z,4.85
2022-08-05T23:20:37.497Z,4.55
2022-08-05T23:23:08.014Z,4.70
2022-08-05T23:25:54.968Z,4.50
2022-08-05T23:28:29.104Z,4.60
2022-08-05T23:31:07.042Z,4.80
2022-08-05T23:34:04.446Z,4.30
2022-08-05T23:36:39.848Z,3.92
2022-08-05T23:39:17.387Z,4.37
2022-08-05T23:41:52.327Z,4.25
2022-08-05T23:44:25.198Z,4.33
2022-08-05T23:46:56.056Z,4.68
2022-08-05T23:49:35.772Z,4.50
2022-08-05T23:52:25.417Z,4.18
2022-08-05T23:54:54.539Z,4.30
2022-08-05T23:57:22.118Z,4.23
